sensor_id;sensor_type;location;lat;lon;timestamp;P1;durP1;ratioP1;P2;durP2;ratioP2
58017;SDS011;43810;50.860;19.226;2023-04-27T00:00:51;7.63;;;4.75;;
58017;SDS011;43810;50.860;19.226;2023-04-27T00:03:17;11.43;;;5.43;;
58017;SDS011;43810;50.860;19.226;2023-04-27T00:05:42;12.20;;;5.30;;
58017;SDS011;43810;50.860;19.226;2023-04-27T00:08:08;11.65;;;5.53;;
58017;SDS011;43810;50.860;19.226;2023-04-27T00:10:34;14.38;;;6.88;;
58017;SDS011;43810;50.860;19.226;2023-04-27T00:13:00;14.02;;;7.68;;
58017;SDS011;43810;50.860;19.226;2023-04-27T00:15:26;11.30;;;5.78;;
58017;SDS011;43810;50.860;19.226;2023-04-27T00:17:53;12.38;;;5.90;;
58017;SDS011;43810;50.860;19.226;2023-04-27T00:20:19;12.63;;;5.20;;
58017;SDS011;43810;50.860;19.226;2023-04-27T00:22:45;11.65;;;5.40;;
58017;SDS011;43810;50.860;19.226;2023-04-27T00:25:11;18.73;;;6.18;;
58017;SDS011;43810;50.860;19.226;2023-04-27T00:27:37;13.93;;;6.00;;
58017;SDS011;43810;50.860;19.226;2023-04-27T00:30:03;13.15;;;5.80;;
58017;SDS011;43810;50.860;19.226;2023-04-27T00:32:30;14.32;;;6.00;;
58017;SDS011;43810;50.860;19.226;2023-04-27T00:34:55;8.57;;;5.50;;
58017;SDS011;43810;50.860;19.226;2023-04-27T00:37:21;10.82;;;5.40;;
58017;SDS011;43810;50.860;19.226;2023-04-27T00:39:47;14.45;;;6.05;;
58017;SDS011;43810;50.860;19.226;2023-04-27T00:42:13;12.05;;;5.70;;
58017;SDS011;43810;50.860;19.226;2023-04-27T00:44:41;11.25;;;5.47;;
58017;SDS011;43810;50.860;19.226;2023-04-27T00:47:08;14.35;;;6.60;;
58017;SDS011;43810;50.860;19.226;2023-04-27T00:49:35;13.32;;;6.25;;
58017;SDS011;43810;50.860;19.226;2023-04-27T00:52:01;9.20;;;4.82;;
58017;SDS011;43810;50.860;19.226;2023-04-27T00:54:27;13.50;;;5.93;;
58017;SDS011;43810;50.860;19.226;2023-04-27T00:56:54;17.17;;;5.88;;
58017;SDS011;43810;50.860;19.226;2023-04-27T00:59:20;14.13;;;5.80;;
58017;SDS011;43810;50.860;19.226;2023-04-27T01:01:46;10.90;;;6.25;;
58017;SDS011;43810;50.860;19.226;2023-04-27T01:04:12;12.05;;;6.00;;
58017;SDS011;43810;50.860;19.226;2023-04-27T01:06:38;11.07;;;5.18;;
58017;SDS011;43810;50.860;19.226;2023-04-27T01:09:04;12.27;;;5.90;;
58017;SDS011;43810;50.860;19.226;2023-04-27T01:11:31;13.23;;;5.65;;
58017;SDS011;43810;50.860;19.226;2023-04-27T01:13:57;10.00;;;5.28;;
58017;SDS011;43810;50.860;19.226;2023-04-27T01:16:28;14.25;;;6.80;;
58017;SDS011;43810;50.860;19.226;2023-04-27T01:18:54;18.20;;;6.97;;
58017;SDS011;43810;50.860;19.226;2023-04-27T01:21:20;13.95;;;5.88;;
58017;SDS011;43810;50.860;19.226;2023-04-27T01:23:46;13.85;;;6.32;;
58017;SDS011;43810;50.860;19.226;2023-04-27T01:26:12;11.45;;;5.88;;
58017;SDS011;43810;50.860;19.226;2023-04-27T01:28:41;15.98;;;6.40;;
58017;SDS011;43810;50.860;19.226;2023-04-27T01:31:08;11.45;;;6.43;;
58017;SDS011;43810;50.860;19.226;2023-04-27T01:33:35;14.98;;;7.05;;
58017;SDS011;43810;50.860;19.226;2023-04-27T01:36:01;11.63;;;5.65;;
58017;SDS011;43810;50.860;19.226;2023-04-27T01:38:27;15.85;;;6.90;;
58017;SDS011;43810;50.860;19.226;2023-04-27T01:40:53;20.65;;;6.60;;
58017;SDS011;43810;50.860;19.226;2023-04-27T01:43:26;13.33;;;6.20;;
58017;SDS011;43810;50.860;19.226;2023-04-27T01:45:52;19.83;;;7.00;;
58017;SDS011;43810;50.860;19.226;2023-04-27T01:48:18;15.10;;;8.40;;
58017;SDS011;43810;50.860;19.226;2023-04-27T01:50:44;13.32;;;7.40;;
58017;SDS011;43810;50.860;19.226;2023-04-27T01:53:10;19.83;;;7.65;;
58017;SDS011;43810;50.860;19.226;2023-04-27T01:55:36;14.68;;;7.00;;
58017;SDS011;43810;50.860;19.226;2023-04-27T01:58:02;10.68;;;6.00;;
58017;SDS011;43810;50.860;19.226;2023-04-27T02:00:28;13.25;;;6.82;;
58017;SDS011;43810;50.860;19.226;2023-04-27T02:02:53;16.08;;;5.97;;
58017;SDS011;43810;50.860;19.226;2023-04-27T02:05:24;15.13;;;6.70;;
58017;SDS011;43810;50.860;19.226;2023-04-27T02:07:50;14.57;;;6.85;;
58017;SDS011;43810;50.860;19.226;2023-04-27T02:10:16;17.25;;;7.88;;
58017;SDS011;43810;50.860;19.226;2023-04-27T02:12:42;15.40;;;7.75;;
58017;SDS011;43810;50.860;19.226;2023-04-27T02:15:08;16.13;;;8.07;;
58017;SDS011;43810;50.860;19.226;2023-04-27T02:17:34;18.52;;;7.35;;
58017;SDS011;43810;50.860;19.226;2023-04-27T02:20:00;17.67;;;7.38;;
58017;SDS011;43810;50.860;19.226;2023-04-27T02:22:26;19.60;;;7.40;;
58017;SDS011;43810;50.860;19.226;2023-04-27T02:24:52;19.63;;;8.18;;
58017;SDS011;43810;50.860;19.226;2023-04-27T02:27:17;15.98;;;7.90;;
58017;SDS011;43810;50.860;19.226;2023-04-27T02:29:43;16.13;;;7.18;;
58017;SDS011;43810;50.860;19.226;2023-04-27T02:32:09;13.73;;;6.82;;
58017;SDS011;43810;50.860;19.226;2023-04-27T02:34:35;14.55;;;6.90;;
58017;SDS011;43810;50.860;19.226;2023-04-27T02:37:01;14.82;;;7.18;;
58017;SDS011;43810;50.860;19.226;2023-04-27T02:39:27;12.88;;;7.68;;
58017;SDS011;43810;50.860;19.226;2023-04-27T02:41:52;17.48;;;8.75;;
58017;SDS011;43810;50.860;19.226;2023-04-27T02:44:18;15.60;;;8.80;;
58017;SDS011;43810;50.860;19.226;2023-04-27T02:46:44;17.38;;;9.80;;
58017;SDS011;43810;50.860;19.226;2023-04-27T02:49:10;16.13;;;8.95;;
58017;SDS011;43810;50.860;19.226;2023-04-27T02:51:36;20.05;;;9.20;;
58017;SDS011;43810;50.860;19.226;2023-04-27T02:54:02;18.15;;;8.93;;
58017;SDS011;43810;50.860;19.226;2023-04-27T02:56:28;18.85;;;8.80;;
58017;SDS011;43810;50.860;19.226;2023-04-27T02:58:54;14.35;;;8.18;;
58017;SDS011;43810;50.860;19.226;2023-04-27T03:01:20;14.30;;;8.10;;
58017;SDS011;43810;50.860;19.226;2023-04-27T03:03:46;14.48;;;7.78;;
58017;SDS011;43810;50.860;19.226;2023-04-27T03:06:12;15.20;;;8.13;;
58017;SDS011;43810;50.860;19.226;2023-04-27T03:08:38;20.00;;;7.90;;
58017;SDS011;43810;50.860;19.226;2023-04-27T03:11:04;17.60;;;8.13;;
58017;SDS011;43810;50.860;19.226;2023-04-27T03:13:30;16.13;;;8.25;;
58017;SDS011;43810;50.860;19.226;2023-04-27T03:16:00;12.38;;;7.82;;
58017;SDS011;43810;50.860;19.226;2023-04-27T03:18:26;13.57;;;8.63;;
58017;SDS011;43810;50.860;19.226;2023-04-27T03:20:51;21.67;;;10.57;;
58017;SDS011;43810;50.860;19.226;2023-04-27T03:23:17;23.65;;;10.32;;
58017;SDS011;43810;50.860;19.226;2023-04-27T03:25:43;24.02;;;11.45;;
58017;SDS011;43810;50.860;19.226;2023-04-27T03:28:09;27.08;;;12.18;;
58017;SDS011;43810;50.860;19.226;2023-04-27T03:30:37;19.02;;;10.63;;
58017;SDS011;43810;50.860;19.226;2023-04-27T03:33:04;22.10;;;10.80;;
58017;SDS011;43810;50.860;19.226;2023-04-27T03:35:30;20.95;;;10.30;;
58017;SDS011;43810;50.860;19.226;2023-04-27T03:37:55;18.40;;;11.07;;
58017;SDS011;43810;50.860;19.226;2023-04-27T03:40:21;20.05;;;10.20;;
58017;SDS011;43810;50.860;19.226;2023-04-27T03:42:47;20.52;;;10.07;;
58017;SDS011;43810;50.860;19.226;2023-04-27T03:45:13;21.33;;;11.05;;
58017;SDS011;43810;50.860;19.226;2023-04-27T03:47:41;24.38;;;12.88;;
58017;SDS011;43810;50.860;19.226;2023-04-27T03:50:07;21.10;;;12.02;;
58017;SDS011;43810;50.860;19.226;2023-04-27T03:52:33;24.42;;;11.52;;
58017;SDS011;43810;50.860;19.226;2023-04-27T03:54:58;26.27;;;12.30;;
58017;SDS011;43810;50.860;19.226;2023-04-27T03:57:24;18.33;;;11.15;;
58017;SDS011;43810;50.860;19.226;2023-04-27T03:59:50;19.83;;;11.55;;
58017;SDS011;43810;50.860;19.226;2023-04-27T04:02:16;20.92;;;10.75;;
58017;SDS011;43810;50.860;19.226;2023-04-27T04:04:42;20.58;;;11.85;;
58017;SDS011;43810;50.860;19.226;2023-04-27T04:07:07;25.65;;;12.32;;
58017;SDS011;43810;50.860;19.226;2023-04-27T04:09:33;20.13;;;10.50;;
58017;SDS011;43810;50.860;19.226;2023-04-27T04:11:59;20.95;;;12.48;;
58017;SDS011;43810;50.860;19.226;2023-04-27T04:14:26;26.48;;;11.25;;
58017;SDS011;43810;50.860;19.226;2023-04-27T04:16:52;27.08;;;11.88;;
58017;SDS011;43810;50.860;19.226;2023-04-27T04:19:18;23.45;;;11.48;;
58017;SDS011;43810;50.860;19.226;2023-04-27T04:21:44;23.60;;;11.15;;
58017;SDS011;43810;50.860;19.226;2023-04-27T04:24:10;20.45;;;12.70;;
58017;SDS011;43810;50.860;19.226;2023-04-27T04:26:36;23.10;;;11.55;;
58017;SDS011;43810;50.860;19.226;2023-04-27T04:29:03;28.77;;;12.48;;
58017;SDS011;43810;50.860;19.226;2023-04-27T04:31:29;25.13;;;11.98;;
58017;SDS011;43810;50.860;19.226;2023-04-27T04:33:55;25.45;;;11.68;;
58017;SDS011;43810;50.860;19.226;2023-04-27T04:36:21;30.42;;;11.85;;
58017;SDS011;43810;50.860;19.226;2023-04-27T04:38:47;25.55;;;11.45;;
58017;SDS011;43810;50.860;19.226;2023-04-27T04:41:12;29.75;;;11.38;;
58017;SDS011;43810;50.860;19.226;2023-04-27T04:43:38;25.90;;;12.07;;
58017;SDS011;43810;50.860;19.226;2023-04-27T04:46:04;26.33;;;11.10;;
58017;SDS011;43810;50.860;19.226;2023-04-27T04:48:30;23.48;;;11.32;;
58017;SDS011;43810;50.860;19.226;2023-04-27T04:50:56;20.88;;;11.05;;
58017;SDS011;43810;50.860;19.226;2023-04-27T04:53:22;22.38;;;10.20;;
58017;SDS011;43810;50.860;19.226;2023-04-27T04:55:48;22.35;;;10.88;;
58017;SDS011;43810;50.860;19.226;2023-04-27T04:58:14;17.13;;;10.32;;
58017;SDS011;43810;50.860;19.226;2023-04-27T05:00:40;21.85;;;10.73;;
58017;SDS011;43810;50.860;19.226;2023-04-27T05:03:06;26.60;;;11.27;;
58017;SDS011;43810;50.860;19.226;2023-04-27T05:05:34;24.15;;;12.57;;
58017;SDS011;43810;50.860;19.226;2023-04-27T05:08:00;26.73;;;11.52;;
58017;SDS011;43810;50.860;19.226;2023-04-27T05:10:26;22.92;;;12.25;;
58017;SDS011;43810;50.860;19.226;2023-04-27T05:12:51;24.70;;;12.27;;
58017;SDS011;43810;50.860;19.226;2023-04-27T05:15:17;19.52;;;11.30;;
58017;SDS011;43810;50.860;19.226;2023-04-27T05:17:43;26.05;;;12.80;;
58017;SDS011;43810;50.860;19.226;2023-04-27T05:20:09;23.73;;;11.32;;
58017;SDS011;43810;50.860;19.226;2023-04-27T05:22:35;28.40;;;12.85;;
58017;SDS011;43810;50.860;19.226;2023-04-27T05:25:01;22.05;;;12.13;;
58017;SDS011;43810;50.860;19.226;2023-04-27T05:27:28;27.65;;;12.07;;
58017;SDS011;43810;50.860;19.226;2023-04-27T05:29:54;25.67;;;11.85;;
58017;SDS011;43810;50.860;19.226;2023-04-27T05:32:20;20.23;;;10.70;;
58017;SDS011;43810;50.860;19.226;2023-04-27T05:34:46;19.45;;;9.65;;
58017;SDS011;43810;50.860;19.226;2023-04-27T05:37:11;22.20;;;10.48;;
58017;SDS011;43810;50.860;19.226;2023-04-27T05:39:37;18.02;;;10.48;;
58017;SDS011;43810;50.860;19.226;2023-04-27T05:42:03;24.55;;;10.48;;
58017;SDS011;43810;50.860;19.226;2023-04-27T05:44:29;17.02;;;9.02;;
58017;SDS011;43810;50.860;19.226;2023-04-27T05:46:55;22.83;;;11.25;;
58017;SDS011;43810;50.860;19.226;2023-04-27T05:49:21;17.42;;;8.73;;
58017;SDS011;43810;50.860;19.226;2023-04-27T05:51:47;20.80;;;9.20;;
58017;SDS011;43810;50.860;19.226;2023-04-27T05:54:13;18.75;;;9.45;;
58017;SDS011;43810;50.860;19.226;2023-04-27T05:56:39;19.15;;;9.35;;
58017;SDS011;43810;50.860;19.226;2023-04-27T05:59:05;18.55;;;7.80;;
58017;SDS011;43810;50.860;19.226;2023-04-27T06:01:31;19.15;;;9.82;;
58017;SDS011;43810;50.860;19.226;2023-04-27T06:03:59;14.85;;;6.82;;
58017;SDS011;43810;50.860;19.226;2023-04-27T06:06:26;11.80;;;7.18;;
58017;SDS011;43810;50.860;19.226;2023-04-27T06:08:52;18.38;;;7.68;;
58017;SDS011;43810;50.860;19.226;2023-04-27T06:11:18;16.10;;;6.22;;
58017;SDS011;43810;50.860;19.226;2023-04-27T06:13:44;14.35;;;6.45;;
58017;SDS011;43810;50.860;19.226;2023-04-27T06:16:10;14.13;;;5.20;;
58017;SDS011;43810;50.860;19.226;2023-04-27T06:18:36;13.57;;;5.95;;
58017;SDS011;43810;50.860;19.226;2023-04-27T06:21:02;17.42;;;5.97;;
58017;SDS011;43810;50.860;19.226;2023-04-27T06:23:28;12.00;;;6.72;;
58017;SDS011;43810;50.860;19.226;2023-04-27T06:25:53;9.77;;;5.03;;
58017;SDS011;43810;50.860;19.226;2023-04-27T06:28:20;11.23;;;5.25;;
58017;SDS011;43810;50.860;19.226;2023-04-27T06:30:46;10.15;;;5.28;;
58017;SDS011;43810;50.860;19.226;2023-04-27T06:33:12;12.40;;;6.57;;
58017;SDS011;43810;50.860;19.226;2023-04-27T06:35:37;13.50;;;5.10;;
58017;SDS011;43810;50.860;19.226;2023-04-27T06:38:03;9.20;;;5.47;;
58017;SDS011;43810;50.860;19.226;2023-04-27T06:40:29;17.90;;;5.25;;
58017;SDS011;43810;50.860;19.226;2023-04-27T06:42:55;10.88;;;5.03;;
58017;SDS011;43810;50.860;19.226;2023-04-27T06:45:21;10.40;;;4.65;;
58017;SDS011;43810;50.860;19.226;2023-04-27T06:47:47;16.90;;;5.70;;
58017;SDS011;43810;50.860;19.226;2023-04-27T06:50:13;10.90;;;5.00;;
58017;SDS011;43810;50.860;19.226;2023-04-27T06:52:40;10.07;;;4.68;;
58017;SDS011;43810;50.860;19.226;2023-04-27T06:55:06;7.55;;;5.03;;
58017;SDS011;43810;50.860;19.226;2023-04-27T06:57:32;10.25;;;5.50;;
58017;SDS011;43810;50.860;19.226;2023-04-27T06:59:58;9.70;;;4.68;;
58017;SDS011;43810;50.860;19.226;2023-04-27T07:02:24;13.27;;;4.90;;
58017;SDS011;43810;50.860;19.226;2023-04-27T07:04:49;21.17;;;8.23;;
58017;SDS011;43810;50.860;19.226;2023-04-27T07:07:15;17.25;;;5.70;;
58017;SDS011;43810;50.860;19.226;2023-04-27T07:09:42;9.30;;;5.32;;
58017;SDS011;43810;50.860;19.226;2023-04-27T07:12:08;9.07;;;4.80;;
58017;SDS011;43810;50.860;19.226;2023-04-27T07:14:34;7.85;;;5.07;;
58017;SDS011;43810;50.860;19.226;2023-04-27T07:17:00;9.60;;;4.95;;
58017;SDS011;43810;50.860;19.226;2023-04-27T07:19:25;14.10;;;4.13;;
58017;SDS011;43810;50.860;19.226;2023-04-27T07:21:51;10.90;;;3.58;;
58017;SDS011;43810;50.860;19.226;2023-04-27T07:24:17;8.95;;;4.18;;
58017;SDS011;43810;50.860;19.226;2023-04-27T07:26:43;10.82;;;4.78;;
58017;SDS011;43810;50.860;19.226;2023-04-27T07:29:09;9.80;;;4.40;;
58017;SDS011;43810;50.860;19.226;2023-04-27T07:31:37;9.35;;;4.03;;
58017;SDS011;43810;50.860;19.226;2023-04-27T07:34:03;13.70;;;4.78;;
58017;SDS011;43810;50.860;19.226;2023-04-27T07:36:29;8.30;;;3.65;;
58017;SDS011;43810;50.860;19.226;2023-04-27T07:38:55;8.45;;;4.05;;
58017;SDS011;43810;50.860;19.226;2023-04-27T07:41:23;12.90;;;4.50;;
58017;SDS011;43810;50.860;19.226;2023-04-27T07:43:49;7.95;;;4.50;;
58017;SDS011;43810;50.860;19.226;2023-04-27T07:46:16;7.70;;;3.45;;
58017;SDS011;43810;50.860;19.226;2023-04-27T07:48:43;11.20;;;4.28;;
58017;SDS011;43810;50.860;19.226;2023-04-27T07:51:09;10.55;;;3.15;;
58017;SDS011;43810;50.860;19.226;2023-04-27T07:53:35;5.57;;;3.53;;
58017;SDS011;43810;50.860;19.226;2023-04-27T07:56:04;10.60;;;4.38;;
58017;SDS011;43810;50.860;19.226;2023-04-27T07:58:30;9.00;;;4.78;;
58017;SDS011;43810;50.860;19.226;2023-04-27T08:00:56;8.32;;;3.53;;
58017;SDS011;43810;50.860;19.226;2023-04-27T08:03:21;8.57;;;3.55;;
58017;SDS011;43810;50.860;19.226;2023-04-27T08:05:47;7.88;;;3.38;;
58017;SDS011;43810;50.860;19.226;2023-04-27T08:08:13;8.95;;;3.85;;
58017;SDS011;43810;50.860;19.226;2023-04-27T08:10:39;9.00;;;4.00;;
58017;SDS011;43810;50.860;19.226;2023-04-27T08:13:07;8.20;;;3.92;;
58017;SDS011;43810;50.860;19.226;2023-04-27T08:15:34;6.68;;;3.10;;
58017;SDS011;43810;50.860;19.226;2023-04-27T08:18:01;6.97;;;3.88;;
58017;SDS011;43810;50.860;19.226;2023-04-27T08:20:27;8.50;;;4.20;;
58017;SDS011;43810;50.860;19.226;2023-04-27T08:22:52;7.50;;;3.60;;
58017;SDS011;43810;50.860;19.226;2023-04-27T08:25:18;8.05;;;3.53;;
58017;SDS011;43810;50.860;19.226;2023-04-27T08:27:44;7.43;;;3.30;;
58017;SDS011;43810;50.860;19.226;2023-04-27T08:30:10;13.18;;;6.32;;
58017;SDS011;43810;50.860;19.226;2023-04-27T08:32:36;7.80;;;3.72;;
58017;SDS011;43810;50.860;19.226;2023-04-27T08:35:02;13.48;;;5.93;;
58017;SDS011;43810;50.860;19.226;2023-04-27T08:37:28;9.30;;;5.57;;
58017;SDS011;43810;50.860;19.226;2023-04-27T08:39:54;10.98;;;5.28;;
58017;SDS011;43810;50.860;19.226;2023-04-27T08:42:20;8.93;;;4.35;;
58017;SDS011;43810;50.860;19.226;2023-04-27T08:44:46;11.95;;;4.00;;
58017;SDS011;43810;50.860;19.226;2023-04-27T08:47:12;6.97;;;3.28;;
58017;SDS011;43810;50.860;19.226;2023-04-27T08:49:38;6.60;;;3.35;;
58017;SDS011;43810;50.860;19.226;2023-04-27T08:52:12;6.15;;;3.15;;
58017;SDS011;43810;50.860;19.226;2023-04-27T08:54:39;9.68;;;3.35;;
58017;SDS011;43810;50.860;19.226;2023-04-27T08:57:11;6.85;;;3.20;;
58017;SDS011;43810;50.860;19.226;2023-04-27T08:59:39;7.85;;;3.60;;
58017;SDS011;43810;50.860;19.226;2023-04-27T09:02:05;5.07;;;3.72;;
58017;SDS011;43810;50.860;19.226;2023-04-27T09:04:37;8.90;;;3.60;;
58017;SDS011;43810;50.860;19.226;2023-04-27T09:07:10;7.15;;;3.38;;
58017;SDS011;43810;50.860;19.226;2023-04-27T09:09:36;7.05;;;4.10;;
58017;SDS011;43810;50.860;19.226;2023-04-27T09:12:12;8.02;;;3.97;;
58017;SDS011;43810;50.860;19.226;2023-04-27T09:14:41;8.55;;;3.38;;
58017;SDS011;43810;50.860;19.226;2023-04-27T09:17:07;8.68;;;4.00;;
58017;SDS011;43810;50.860;19.226;2023-04-27T09:19:33;16.27;;;4.93;;
58017;SDS011;43810;50.860;19.226;2023-04-27T09:22:02;6.32;;;4.13;;
58017;SDS011;43810;50.860;19.226;2023-04-27T09:24:35;9.32;;;3.63;;
58017;SDS011;43810;50.860;19.226;2023-04-27T09:27:02;7.88;;;3.45;;
58017;SDS011;43810;50.860;19.226;2023-04-27T09:29:33;8.60;;;4.30;;
58017;SDS011;43810;50.860;19.226;2023-04-27T09:32:14;11.40;;;5.43;;
58017;SDS011;43810;50.860;19.226;2023-04-27T09:34:49;5.53;;;3.42;;
58017;SDS011;43810;50.860;19.226;2023-04-27T09:37:15;5.80;;;3.20;;
58017;SDS011;43810;50.860;19.226;2023-04-27T09:39:41;13.73;;;4.43;;
58017;SDS011;43810;50.860;19.226;2023-04-27T09:42:07;6.93;;;3.25;;
58017;SDS011;43810;50.860;19.226;2023-04-27T09:44:34;6.45;;;3.20;;
58017;SDS011;43810;50.860;19.226;2023-04-27T09:47:00;7.30;;;3.83;;
58017;SDS011;43810;50.860;19.226;2023-04-27T09:49:29;7.05;;;3.42;;
58017;SDS011;43810;50.860;19.226;2023-04-27T09:51:58;7.32;;;3.58;;
58017;SDS011;43810;50.860;19.226;2023-04-27T09:54:28;5.15;;;3.05;;
58017;SDS011;43810;50.860;19.226;2023-04-27T09:59:40;9.98;;;4.18;;
58017;SDS011;43810;50.860;19.226;2023-04-27T10:02:36;10.90;;;4.97;;
58017;SDS011;43810;50.860;19.226;2023-04-27T10:05:18;5.78;;;3.17;;
58017;SDS011;43810;50.860;19.226;2023-04-27T10:07:53;4.68;;;3.10;;
58017;SDS011;43810;50.860;19.226;2023-04-27T10:10:20;8.18;;;2.78;;
58017;SDS011;43810;50.860;19.226;2023-04-27T10:12:55;9.15;;;3.75;;
58017;SDS011;43810;50.860;19.226;2023-04-27T10:15:27;10.20;;;4.68;;
58017;SDS011;43810;50.860;19.226;2023-04-27T10:17:54;11.18;;;5.25;;
58017;SDS011;43810;50.860;19.226;2023-04-27T10:20:30;11.10;;;3.67;;
58017;SDS011;43810;50.860;19.226;2023-04-27T10:22:57;3.70;;;2.80;;
58017;SDS011;43810;50.860;19.226;2023-04-27T10:25:28;5.28;;;3.10;;
58017;SDS011;43810;50.860;19.226;2023-04-27T10:28:01;5.80;;;2.72;;
58017;SDS011;43810;50.860;19.226;2023-04-27T10:30:31;9.43;;;2.92;;
58017;SDS011;43810;50.860;19.226;2023-04-27T10:33:11;7.30;;;3.25;;
58017;SDS011;43810;50.860;19.226;2023-04-27T10:35:41;5.07;;;2.85;;
58017;SDS011;43810;50.860;19.226;2023-04-27T10:38:16;6.35;;;2.95;;
58017;SDS011;43810;50.860;19.226;2023-04-27T10:40:44;7.05;;;3.47;;
58017;SDS011;43810;50.860;19.226;2023-04-27T10:43:22;10.05;;;3.45;;
58017;SDS011;43810;50.860;19.226;2023-04-27T10:45:49;8.40;;;3.50;;
58017;SDS011;43810;50.860;19.226;2023-04-27T10:48:15;3.85;;;3.38;;
58017;SDS011;43810;50.860;19.226;2023-04-27T10:50:41;9.60;;;3.20;;
58017;SDS011;43810;50.860;19.226;2023-04-27T10:53:09;5.15;;;3.45;;
58017;SDS011;43810;50.860;19.226;2023-04-27T10:55:35;7.13;;;3.60;;
58017;SDS011;43810;50.860;19.226;2023-04-27T10:58:01;4.45;;;3.55;;
58017;SDS011;43810;50.860;19.226;2023-04-27T11:00:32;6.70;;;3.22;;
58017;SDS011;43810;50.860;19.226;2023-04-27T11:03:15;8.60;;;2.35;;
58017;SDS011;43810;50.860;19.226;2023-04-27T11:05:47;4.95;;;2.25;;
58017;SDS011;43810;50.860;19.226;2023-04-27T11:08:22;7.05;;;2.40;;
58017;SDS011;43810;50.860;19.226;2023-04-27T11:10:49;18.35;;;3.13;;
58017;SDS011;43810;50.860;19.226;2023-04-27T11:13:16;7.15;;;2.88;;
58017;SDS011;43810;50.860;19.226;2023-04-27T11:15:57;7.10;;;2.72;;
58017;SDS011;43810;50.860;19.226;2023-04-27T11:18:25;5.30;;;2.10;;
58017;SDS011;43810;50.860;19.226;2023-04-27T11:21:06;7.80;;;2.35;;
58017;SDS011;43810;50.860;19.226;2023-04-27T11:23:34;7.43;;;2.90;;
58017;SDS011;43810;50.860;19.226;2023-04-27T11:26:09;4.55;;;2.40;;
58017;SDS011;43810;50.860;19.226;2023-04-27T11:28:43;6.63;;;2.38;;
58017;SDS011;43810;50.860;19.226;2023-04-27T11:31:13;5.38;;;2.83;;
58017;SDS011;43810;50.860;19.226;2023-04-27T11:33:46;4.68;;;2.13;;
58017;SDS011;43810;50.860;19.226;2023-04-27T11:36:16;8.48;;;3.35;;
58017;SDS011;43810;50.860;19.226;2023-04-27T11:38:46;6.35;;;2.75;;
58017;SDS011;43810;50.860;19.226;2023-04-27T11:41:12;8.20;;;2.08;;
58017;SDS011;43810;50.860;19.226;2023-04-27T11:43:41;5.13;;;2.55;;
58017;SDS011;43810;50.860;19.226;2023-04-27T11:46:10;11.80;;;2.80;;
58017;SDS011;43810;50.860;19.226;2023-04-27T11:48:36;4.57;;;3.25;;
58017;SDS011;43810;50.860;19.226;2023-04-27T11:51:04;13.45;;;4.53;;
58017;SDS011;43810;50.860;19.226;2023-04-27T11:53:31;7.07;;;3.20;;
58017;SDS011;43810;50.860;19.226;2023-04-27T11:56:04;5.77;;;3.60;;
58017;SDS011;43810;50.860;19.226;2023-04-27T11:58:32;5.18;;;3.30;;
58017;SDS011;43810;50.860;19.226;2023-04-27T12:01:00;5.55;;;3.47;;
58017;SDS011;43810;50.860;19.226;2023-04-27T12:03:26;6.78;;;3.00;;
58017;SDS011;43810;50.860;19.226;2023-04-27T12:05:53;8.23;;;4.72;;
58017;SDS011;43810;50.860;19.226;2023-04-27T12:08:19;4.80;;;2.70;;
58017;SDS011;43810;50.860;19.226;2023-04-27T12:10:45;3.35;;;2.00;;
58017;SDS011;43810;50.860;19.226;2023-04-27T12:13:11;3.83;;;1.90;;
58017;SDS011;43810;50.860;19.226;2023-04-27T12:15:39;4.88;;;2.47;;
58017;SDS011;43810;50.860;19.226;2023-04-27T12:18:06;4.82;;;2.88;;
58017;SDS011;43810;50.860;19.226;2023-04-27T12:20:36;9.43;;;2.75;;
58017;SDS011;43810;50.860;19.226;2023-04-27T12:23:01;4.35;;;2.50;;
58017;SDS011;43810;50.860;19.226;2023-04-27T12:25:28;4.95;;;2.67;;
58017;SDS011;43810;50.860;19.226;2023-04-27T12:27:54;7.45;;;3.28;;
58017;SDS011;43810;50.860;19.226;2023-04-27T12:30:21;8.95;;;4.07;;
58017;SDS011;43810;50.860;19.226;2023-04-27T12:32:47;8.88;;;3.85;;
58017;SDS011;43810;50.860;19.226;2023-04-27T12:35:15;11.63;;;5.10;;
58017;SDS011;43810;50.860;19.226;2023-04-27T12:37:41;9.23;;;3.47;;
58017;SDS011;43810;50.860;19.226;2023-04-27T12:40:12;15.13;;;3.42;;
58017;SDS011;43810;50.860;19.226;2023-04-27T12:42:41;4.45;;;3.08;;
58017;SDS011;43810;50.860;19.226;2023-04-27T12:45:10;7.53;;;3.03;;
58017;SDS011;43810;50.860;19.226;2023-04-27T12:47:35;5.10;;;2.72;;
58017;SDS011;43810;50.860;19.226;2023-04-27T12:50:02;5.72;;;2.92;;
58017;SDS011;43810;50.860;19.226;2023-04-27T12:52:28;8.63;;;2.83;;
58017;SDS011;43810;50.860;19.226;2023-04-27T12:54:54;5.70;;;3.33;;
58017;SDS011;43810;50.860;19.226;2023-04-27T12:57:26;11.48;;;3.30;;
58017;SDS011;43810;50.860;19.226;2023-04-27T12:59:52;6.25;;;2.90;;
58017;SDS011;43810;50.860;19.226;2023-04-27T13:02:17;4.07;;;2.65;;
58017;SDS011;43810;50.860;19.226;2023-04-27T13:04:44;4.50;;;2.30;;
58017;SDS011;43810;50.860;19.226;2023-04-27T13:07:10;5.40;;;2.75;;
58017;SDS011;43810;50.860;19.226;2023-04-27T13:09:36;5.75;;;2.42;;
58017;SDS011;43810;50.860;19.226;2023-04-27T13:12:02;11.35;;;2.38;;
58017;SDS011;43810;50.860;19.226;2023-04-27T13:14:28;3.67;;;2.03;;
58017;SDS011;43810;50.860;19.226;2023-04-27T13:16:56;6.10;;;2.72;;
58017;SDS011;43810;50.860;19.226;2023-04-27T13:19:22;3.80;;;2.30;;
58017;SDS011;43810;50.860;19.226;2023-04-27T13:21:48;4.30;;;2.20;;
58017;SDS011;43810;50.860;19.226;2023-04-27T13:24:14;6.65;;;2.38;;
58017;SDS011;43810;50.860;19.226;2023-04-27T13:26:41;3.80;;;2.58;;
58017;SDS011;43810;50.860;19.226;2023-04-27T13:29:07;6.65;;;3.15;;
58017;SDS011;43810;50.860;19.226;2023-04-27T13:31:33;6.45;;;2.03;;
58017;SDS011;43810;50.860;19.226;2023-04-27T13:33:59;5.30;;;2.58;;
58017;SDS011;43810;50.860;19.226;2023-04-27T13:36:26;6.40;;;3.10;;
58017;SDS011;43810;50.860;19.226;2023-04-27T13:38:53;4.53;;;2.55;;
58017;SDS011;43810;50.860;19.226;2023-04-27T13:41:21;5.85;;;2.15;;
58017;SDS011;43810;50.860;19.226;2023-04-27T13:43:50;3.35;;;2.10;;
58017;SDS011;43810;50.860;19.226;2023-04-27T13:46:16;5.72;;;2.45;;
58017;SDS011;43810;50.860;19.226;2023-04-27T13:48:47;7.25;;;2.55;;
58017;SDS011;43810;50.860;19.226;2023-04-27T13:51:20;4.85;;;1.95;;
58017;SDS011;43810;50.860;19.226;2023-04-27T13:53:49;3.60;;;1.45;;
58017;SDS011;43810;50.860;19.226;2023-04-27T13:56:15;5.63;;;2.60;;
58017;SDS011;43810;50.860;19.226;2023-04-27T13:58:41;5.00;;;2.05;;
58017;SDS011;43810;50.860;19.226;2023-04-27T14:01:07;6.70;;;2.70;;
58017;SDS011;43810;50.860;19.226;2023-04-27T14:03:33;6.00;;;2.20;;
58017;SDS011;43810;50.860;19.226;2023-04-27T14:05:59;3.42;;;1.95;;
58017;SDS011;43810;50.860;19.226;2023-04-27T14:08:28;5.47;;;2.20;;
58017;SDS011;43810;50.860;19.226;2023-04-27T14:10:58;4.07;;;2.20;;
58017;SDS011;43810;50.860;19.226;2023-04-27T14:13:24;7.60;;;2.13;;
58017;SDS011;43810;50.860;19.226;2023-04-27T14:15:49;4.50;;;2.10;;
58017;SDS011;43810;50.860;19.226;2023-04-27T14:18:17;2.80;;;2.03;;
58017;SDS011;43810;50.860;19.226;2023-04-27T14:20:43;5.35;;;2.65;;
58017;SDS011;43810;50.860;19.226;2023-04-27T14:23:09;4.53;;;2.45;;
58017;SDS011;43810;50.860;19.226;2023-04-27T14:25:35;5.40;;;2.17;;
58017;SDS011;43810;50.860;19.226;2023-04-27T14:28:06;7.40;;;3.50;;